Williamson, Illinois
Current Conditions -  °F | °C
As of 6:35 PM on Monday 24 Nov 2014 (Local Time) from K3LF Reporting Station
Overcast Overcast  
Wind Chill: 26°   Ceiling: 8000
Heat Index: 36°   Visibility: 10mi
Dew Point: 28°   Wind: 16mph
Humidity: 75%   Direction: 260°W
Pressure: 29.88"   Gusts: 22mph
Location:  39.0218°N, 89.7604°W
Report Text: K3LF 250035Z AUTO 26014G19KT 10SM SCT038 OVC080 02/M02 A2988 RMK AO2 T00201021
Loading
Personal Weather Stations






























Interactive Weather Map New forecast layout! Learn more

10-Day Weather Forecast

Advertisements
Track Severe Weather on mobile